createdAt,value
2018-01-12T00:00:10.062Z,9.03
2018-01-12T00:03:19.602Z,9.90
2018-01-12T00:06:28.352Z,9.30
2018-01-12T00:09:42.772Z,10.20
2018-01-12T00:12:57.593Z,9.60
2018-01-12T00:16:07.743Z,9.27
2018-01-12T00:19:18.686Z,9.60
2018-01-12T00:22:31.914Z,8.67
2018-01-12T00:25:43.016Z,9.70
2018-01-12T00:28:52.985Z,9.37
2018-01-12T00:32:03.214Z,9.73
2018-01-12T00:35:11.401Z,9.73
2018-01-12T00:38:20.649Z,9.70
2018-01-12T00:41:32.638Z,9.80
2018-01-12T00:44:43.219Z,9.70
2018-01-12T00:47:52.084Z,8.90
2018-01-12T00:51:02.152Z,9.50
2018-01-12T00:54:14.768Z,9.50
2018-01-12T00:57:27.046Z,8.50
2018-01-12T01:00:35.667Z,8.03
2018-01-12T01:03:44.359Z,10.30
2018-01-12T01:06:57.110Z,8.83
2018-01-12T01:10:05.219Z,9.30
2018-01-12T01:13:16.515Z,8.97
2018-01-12T01:16:30.730Z,8.50
2018-01-12T01:19:39.954Z,8.40
2018-01-12T01:22:54.748Z,9.33
2018-01-12T01:26:07.315Z,9.33
2018-01-12T01:29:21.126Z,8.50
2018-01-12T01:32:32.671Z,8.17
2018-01-12T01:35:47.630Z,7.93
2018-01-12T01:38:56.354Z,8.27
2018-01-12T01:42:05.761Z,8.00
2018-01-12T01:45:13.490Z,7.30
2018-01-12T01:48:37.825Z,8.07
2018-01-12T01:51:52.819Z,8.93
2018-01-12T01:55:02.662Z,8.33
2018-01-12T01:58:12.050Z,8.50
2018-01-12T02:01:26.668Z,8.37
2018-01-12T02:04:38.841Z,8.70
2018-01-12T02:07:51.050Z,10.67
2018-01-12T02:11:02.352Z,11.23
2018-01-12T02:14:13.342Z,9.50
2018-01-12T02:17:29.446Z,11.00
2018-01-12T02:20:42.158Z,11.37
2018-01-12T02:23:52.324Z,12.00
2018-01-12T02:27:04.770Z,12.60
2018-01-12T02:30:17.638Z,13.57
2018-01-12T02:33:28.657Z,13.83
2018-01-12T02:36:37.902Z,13.27
2018-01-12T02:39:48.878Z,13.17
2018-01-12T02:42:58.890Z,14.50
2018-01-12T02:49:24.004Z,14.60
2018-01-12T02:52:52.815Z,16.47
2018-01-12T02:56:10.449Z,14.47
2018-01-12T02:59:21.028Z,16.33
2018-01-12T03:02:32.883Z,16.07
2018-01-12T03:05:45.643Z,16.20
2018-01-12T03:08:57.516Z,16.00
2018-01-12T03:12:08.078Z,16.20
2018-01-12T03:15:19.932Z,17.03
2018-01-12T03:18:31.110Z,19.30
2018-01-12T03:21:42.583Z,19.30
2018-01-12T03:24:53.393Z,17.47
2018-01-12T03:28:07.369Z,17.50
2018-01-12T03:31:21.013Z,19.13
2018-01-12T03:34:31.430Z,20.10
2018-01-12T03:37:41.222Z,19.77
2018-01-12T03:40:53.276Z,20.10
2018-01-12T03:44:05.748Z,21.93
2018-01-12T03:47:15.293Z,21.53
2018-01-12T03:50:28.381Z,21.77
2018-01-12T03:53:41.183Z,21.47
2018-01-12T03:56:56.856Z,22.33
2018-01-12T04:00:07.232Z,21.40
2018-01-12T04:03:17.432Z,21.67
2018-01-12T04:06:29.690Z,20.57
2018-01-12T04:09:38.372Z,20.77
2018-01-12T04:12:49.879Z,22.00
2018-01-12T04:16:00.296Z,21.60
2018-01-12T04:19:10.874Z,20.17
2018-01-12T04:22:21.238Z,21.30
2018-01-12T04:25:33.081Z,21.00
2018-01-12T04:28:42.676Z,20.10
2018-01-12T04:31:55.214Z,21.70
2018-01-12T04:35:08.496Z,19.83
2018-01-12T04:38:19.232Z,20.27
2018-01-12T04:41:29.237Z,20.57
2018-01-12T04:44:47.200Z,19.27
2018-01-12T04:47:57.572Z,17.83
2018-01-12T04:51:10.093Z,19.60
2018-01-12T04:54:20.746Z,19.10
2018-01-12T04:57:34.928Z,18.90
2018-01-12T05:00:46.428Z,19.90
2018-01-12T05:03:55.884Z,19.17
2018-01-12T05:07:03.776Z,17.90
2018-01-12T05:10:14.806Z,18.30
2018-01-12T05:13:32.829Z,17.50
2018-01-12T05:16:44.031Z,17.33
2018-01-12T05:19:57.077Z,16.30
2018-01-12T05:23:09.105Z,17.03
2018-01-12T05:26:20.270Z,16.37
2018-01-12T05:29:30.349Z,18.50
2018-01-12T05:32:39.124Z,17.80
2018-01-12T05:35:49.689Z,17.43
2018-01-12T05:38:58.850Z,18.33
2018-01-12T05:42:09.538Z,16.13
2018-01-12T05:45:21.608Z,17.57
2018-01-12T05:48:31.926Z,17.07
2018-01-12T05:51:42.192Z,16.70
2018-01-12T05:54:53.841Z,15.93
2018-01-12T05:58:05.280Z,17.33
2018-01-12T06:01:25.883Z,17.53
2018-01-12T06:04:45.837Z,18.90
2018-01-12T06:08:02.724Z,17.90
2018-01-12T06:11:14.469Z,19.07
2018-01-12T06:14:25.676Z,19.23
2018-01-12T06:17:37.175Z,18.70
2018-01-12T06:20:50.628Z,19.47
2018-01-12T06:24:01.047Z,21.00
2018-01-12T06:27:13.420Z,20.07
2018-01-12T06:30:22.544Z,20.07
2018-01-12T06:33:31.700Z,19.33
2018-01-12T06:36:39.762Z,20.17
2018-01-12T06:39:51.532Z,20.03
2018-01-12T06:43:01.772Z,19.47
2018-01-12T06:46:12.561Z,20.83
2018-01-12T06:49:23.186Z,19.90
2018-01-12T06:52:34.684Z,20.97
2018-01-12T06:55:46.826Z,20.53
2018-01-12T06:58:57.187Z,19.60
2018-01-12T07:02:08.195Z,18.43
2018-01-12T07:05:21.916Z,18.30
2018-01-12T07:08:31.901Z,18.13
2018-01-12T07:11:41.432Z,18.70
2018-01-12T07:14:54.500Z,20.87
2018-01-12T07:18:05.868Z,19.07
2018-01-12T07:21:26.566Z,20.43
2018-01-12T07:24:39.765Z,18.63
2018-01-12T07:27:54.021Z,20.67
2018-01-12T07:31:04.161Z,18.40
2018-01-12T07:34:15.461Z,18.90
2018-01-12T07:37:27.530Z,20.50
2018-01-12T07:40:36.707Z,19.50
2018-01-12T07:43:47.791Z,21.43
2018-01-12T07:46:58.487Z,21.40
2018-01-12T07:50:13.953Z,19.47
2018-01-12T07:53:25.879Z,21.00
2018-01-12T07:56:38.588Z,20.40
2018-01-12T07:59:52.087Z,22.27
2018-01-12T08:03:09.850Z,20.10
2018-01-12T08:06:17.475Z,22.00
2018-01-12T08:09:26.573Z,19.00
2018-01-12T08:12:37.025Z,19.73
2018-01-12T08:15:47.095Z,20.07
2018-01-12T08:18:56.748Z,20.60
2018-01-12T08:22:06.395Z,21.47
2018-01-12T08:25:31.021Z,20.87
2018-01-12T08:28:42.301Z,18.17
2018-01-12T08:31:54.412Z,19.93
2018-01-12T08:35:03.472Z,21.27
2018-01-12T08:38:13.944Z,20.87
2018-01-12T08:41:24.122Z,22.13
2018-01-12T08:44:33.025Z,21.77
2018-01-12T08:47:43.916Z,20.27
2018-01-12T08:50:54.384Z,20.67
2018-01-12T08:54:05.553Z,23.23
2018-01-12T08:57:16.929Z,22.00
2018-01-12T09:00:35.892Z,21.13
2018-01-12T09:03:48.357Z,21.27
2018-01-12T09:06:58.457Z,22.27
2018-01-12T09:10:10.252Z,21.60
2018-01-12T09:13:31.756Z,23.07
2018-01-12T09:16:40.933Z,21.60
2018-01-12T09:19:54.389Z,20.13
2018-01-12T09:26:36.576Z,20.40
2018-01-12T09:29:46.784Z,20.30
2018-01-12T09:33:04.312Z,21.77
2018-01-12T09:36:13.922Z,20.50
2018-01-12T09:39:32.780Z,21.00
2018-01-12T09:42:45.431Z,21.40
2018-01-12T09:45:56.890Z,20.87
2018-01-12T09:49:10.912Z,21.00
2018-01-12T09:52:25.219Z,22.47
2018-01-12T09:55:36.462Z,22.30
2018-01-12T09:58:52.308Z,22.70
2018-01-12T10:02:01.710Z,22.43
2018-01-12T10:05:15.176Z,22.83
2018-01-12T10:08:32.259Z,20.93
2018-01-12T10:11:43.731Z,24.67
2018-01-12T10:14:55.802Z,22.30
2018-01-12T10:18:12.169Z,22.30
2018-01-12T10:21:36.349Z,23.30
2018-01-12T10:24:46.834Z,23.40
2018-01-12T10:27:57.627Z,24.10
2018-01-12T10:31:05.458Z,23.70
2018-01-12T10:34:17.730Z,24.10
2018-01-12T10:37:29.242Z,23.67
2018-01-12T10:40:48.733Z,22.77
2018-01-12T10:44:03.632Z,23.30
2018-01-12T10:50:57.908Z,23.20
2018-01-12T10:54:12.221Z,24.37
2018-01-12T10:57:22.596Z,23.77
2018-01-12T11:00:35.685Z,24.43
2018-01-12T11:03:46.459Z,21.50
2018-01-12T11:06:57.264Z,25.77
2018-01-12T11:10:12.190Z,23.00
2018-01-12T11:13:24.918Z,21.77
2018-01-12T11:16:39.388Z,22.33
2018-01-12T11:19:52.572Z,23.67
2018-01-12T11:23:03.226Z,23.53
2018-01-12T11:26:15.850Z,23.77
2018-01-12T11:29:26.732Z,24.40
2018-01-12T11:32:40.166Z,22.67
2018-01-12T11:35:51.048Z,21.77
2018-01-12T11:39:03.039Z,22.23
2018-01-12T11:42:13.957Z,22.00
2018-01-12T11:45:23.419Z,22.53
2018-01-12T11:48:33.262Z,22.73
2018-01-12T11:51:47.408Z,22.27
2018-01-12T11:54:57.606Z,21.17
2018-01-12T11:58:09.241Z,21.60
2018-01-12T12:01:19.961Z,22.40
2018-01-12T12:04:32.087Z,21.67
2018-01-12T12:07:46.372Z,23.60
2018-01-12T12:10:58.349Z,22.43
2018-01-12T12:14:08.369Z,20.20
2018-01-12T12:17:20.646Z,21.60
2018-01-12T12:20:34.817Z,19.77
2018-01-12T12:23:46.672Z,21.47
2018-01-12T12:26:57.420Z,21.10
2018-01-12T12:30:07.217Z,19.67
2018-01-12T12:33:19.650Z,18.27
2018-01-12T12:39:49.919Z,20.23
2018-01-12T12:43:00.295Z,21.97
2018-01-12T12:46:10.557Z,20.63
2018-01-12T12:49:21.562Z,21.30
2018-01-12T12:52:31.316Z,19.17
2018-01-12T12:55:45.326Z,19.33
2018-01-12T12:58:56.468Z,17.80
2018-01-12T13:02:07.294Z,19.30
2018-01-12T13:05:17.170Z,18.27
2018-01-12T13:08:28.288Z,16.57
2018-01-12T13:11:44.522Z,18.40
2018-01-12T13:14:55.541Z,16.53
2018-01-12T13:18:04.651Z,17.63
2018-01-12T13:21:15.688Z,19.30
2018-01-12T13:24:27.457Z,16.23
2018-01-12T13:27:36.310Z,17.90
2018-01-12T13:30:49.013Z,18.00
2018-01-12T13:33:59.208Z,15.90
2018-01-12T13:37:09.885Z,18.00
2018-01-12T13:40:32.075Z,18.40
2018-01-12T13:43:44.424Z,18.40
2018-01-12T13:46:58.857Z,17.20
2018-01-12T13:50:09.115Z,18.03
2018-01-12T13:53:19.109Z,18.07
2018-01-12T13:56:28.213Z,17.97
2018-01-12T13:59:39.249Z,17.70
2018-01-12T14:02:48.985Z,16.07
2018-01-12T14:05:58.920Z,17.00
2018-01-12T14:09:10.692Z,15.80
2018-01-12T14:12:20.390Z,17.70
2018-01-12T14:15:30.469Z,17.20
2018-01-12T14:18:41.509Z,17.13
2018-01-12T14:21:53.495Z,16.43
2018-01-12T14:25:04.941Z,16.40
2018-01-12T14:28:17.533Z,16.20
2018-01-12T14:31:29.138Z,15.93
2018-01-12T14:34:39.469Z,16.37
2018-01-12T14:37:50.952Z,14.70
2018-01-12T14:41:01.833Z,14.03
2018-01-12T14:44:15.092Z,16.07
2018-01-12T14:47:25.268Z,16.30
2018-01-12T14:50:35.277Z,16.17
2018-01-12T14:53:46.650Z,14.90
2018-01-12T14:56:56.640Z,15.70
2018-01-12T15:00:08.466Z,13.87
2018-01-12T15:03:24.852Z,15.50
2018-01-12T15:06:36.016Z,15.03
2018-01-12T15:09:47.778Z,15.77
2018-01-12T15:12:59.238Z,14.93
2018-01-12T15:16:09.685Z,14.30
2018-01-12T15:19:24.162Z,14.70
2018-01-12T15:22:37.417Z,14.70
2018-01-12T15:25:49.778Z,14.00
2018-01-12T15:29:01.045Z,15.33
2018-01-12T15:32:15.536Z,15.03
2018-01-12T15:35:27.320Z,13.13
2018-01-12T15:38:45.498Z,13.40
2018-01-12T15:41:59.912Z,15.20
2018-01-12T15:45:11.582Z,13.33
2018-01-12T15:48:20.904Z,13.87
2018-01-12T15:51:44.788Z,14.10
2018-01-12T15:55:05.807Z,13.57
2018-01-12T15:58:28.739Z,13.77
2018-01-12T16:01:58.282Z,14.37
2018-01-12T16:05:12.747Z,13.00
2018-01-12T16:08:30.229Z,13.67
2018-01-12T16:11:51.174Z,14.50
2018-01-12T16:15:11.720Z,12.80
2018-01-12T16:18:34.736Z,13.00
2018-01-12T16:22:00.224Z,13.07
2018-01-12T16:25:18.829Z,13.27
2018-01-12T16:28:47.879Z,12.43
2018-01-12T16:32:07.626Z,11.53
2018-01-12T16:35:25.611Z,12.70
2018-01-12T16:38:44.735Z,12.60
2018-01-12T16:45:39.840Z,12.73
2018-01-12T16:49:20.000Z,11.57
2018-01-12T16:56:08.500Z,13.10
2018-01-12T16:59:47.194Z,11.80
2018-01-12T17:03:03.527Z,12.00
2018-01-12T17:06:28.849Z,12.53
2018-01-12T17:09:52.627Z,12.30
2018-01-12T17:13:21.863Z,12.50
2018-01-12T17:16:42.505Z,10.97
2018-01-12T17:30:41.781Z,12.27
2018-01-12T17:34:09.915Z,12.00
2018-01-12T17:37:31.349Z,11.40
2018-01-12T17:40:50.273Z,11.83
2018-01-12T17:44:17.960Z,13.30
2018-01-12T17:47:45.146Z,12.57
2018-01-12T17:51:10.095Z,10.27
2018-01-12T17:54:28.471Z,13.87
2018-01-12T17:57:50.669Z,11.57
2018-01-12T18:01:24.738Z,12.57
2018-01-12T18:04:45.095Z,12.00
2018-01-12T18:08:16.579Z,12.40
2018-01-12T18:18:54.183Z,12.67
2018-01-12T18:22:16.804Z,13.00
2018-01-12T18:25:26.773Z,11.90
2018-01-12T18:28:45.257Z,13.53
2018-01-12T18:32:06.846Z,12.60
2018-01-12T18:35:41.013Z,12.80
2018-01-12T18:39:05.635Z,14.70
2018-01-12T18:42:26.606Z,13.60
2018-01-12T18:46:00.499Z,14.33
2018-01-12T18:49:23.067Z,14.20
2018-01-12T18:52:39.395Z,13.27
2018-01-12T18:56:11.332Z,13.93
2018-01-12T18:59:41.748Z,15.00
2018-01-12T19:03:05.469Z,13.77
2018-01-12T19:06:45.791Z,14.40
2018-01-12T19:10:09.087Z,16.33
2018-01-12T19:13:39.100Z,14.23
2018-01-12T19:17:13.913Z,14.53
2018-01-12T19:24:07.411Z,14.23
2018-01-12T19:34:49.647Z,14.20
2018-01-12T19:38:21.017Z,13.90
2018-01-12T19:45:05.125Z,15.03
2018-01-12T19:48:18.345Z,14.33
2018-01-12T19:51:46.040Z,14.53
2018-01-12T19:55:13.671Z,14.30
2018-01-12T19:58:31.832Z,13.73
2018-01-12T20:02:00.760Z,15.13
2018-01-12T20:05:21.594Z,14.50
2018-01-12T20:08:50.910Z,15.20
2018-01-12T20:15:58.675Z,15.13
2018-01-12T20:19:23.431Z,15.17
2018-01-12T20:22:40.474Z,14.10
2018-01-12T20:25:52.785Z,16.73
2018-01-12T20:29:04.972Z,14.37
2018-01-12T20:32:17.413Z,15.17
2018-01-12T20:35:26.425Z,15.37
2018-01-12T20:38:48.453Z,15.50
2018-01-12T20:45:40.724Z,13.97
2018-01-12T20:49:26.980Z,16.57
2018-01-12T20:52:47.524Z,15.00
2018-01-12T20:55:58.469Z,14.87
2018-01-12T20:59:10.810Z,14.67
2018-01-12T21:02:24.513Z,14.30
2018-01-12T21:05:34.467Z,14.43
2018-01-12T21:08:43.388Z,14.37
2018-01-12T21:12:04.512Z,14.40
2018-01-12T21:15:14.258Z,14.10
2018-01-12T21:18:26.629Z,14.83
2018-01-12T21:21:36.661Z,15.27
2018-01-12T21:24:48.027Z,14.27
2018-01-12T21:28:15.204Z,15.10
2018-01-12T21:31:23.502Z,15.43
2018-01-12T21:34:37.234Z,14.90
2018-01-12T21:37:46.837Z,14.97
2018-01-12T21:40:59.937Z,15.03
2018-01-12T21:44:09.622Z,14.80
2018-01-12T21:47:21.789Z,14.30
2018-01-12T21:50:37.295Z,14.70
2018-01-12T21:53:49.284Z,13.63
2018-01-12T21:56:59.941Z,14.67
2018-01-12T22:00:10.872Z,15.33
2018-01-12T22:03:20.381Z,14.13
2018-01-12T22:06:30.290Z,14.33
2018-01-12T22:09:44.399Z,14.10
2018-01-12T22:13:09.578Z,15.90
2018-01-12T22:16:19.178Z,13.53
2018-01-12T22:19:34.672Z,14.60
2018-01-12T22:22:46.703Z,14.80
2018-01-12T22:26:00.573Z,13.00
2018-01-12T22:29:07.437Z,13.53
2018-01-12T22:32:17.314Z,11.40
2018-01-12T22:35:27.077Z,14.00
2018-01-12T22:38:39.768Z,15.40
2018-01-12T22:41:51.368Z,12.20
2018-01-12T22:45:05.011Z,13.93
2018-01-12T22:48:12.435Z,14.47
2018-01-12T22:51:20.252Z,14.50
2018-01-12T22:54:29.068Z,14.00
2018-01-12T22:57:41.650Z,14.20
2018-01-12T23:04:17.673Z,14.03
2018-01-12T23:07:28.376Z,13.77
2018-01-12T23:10:38.188Z,13.60
2018-01-12T23:13:48.433Z,14.17
2018-01-12T23:17:01.277Z,13.37
2018-01-12T23:20:11.557Z,12.60
2018-01-12T23:23:24.471Z,12.80
2018-01-12T23:29:55.750Z,14.73
2018-01-12T23:33:03.467Z,13.47
2018-01-12T23:36:21.504Z,13.63
2018-01-12T23:43:01.038Z,12.77
2018-01-12T23:46:09.851Z,12.83
2018-01-12T23:49:19.451Z,14.47
2018-01-12T23:52:29.710Z,11.67
2018-01-12T23:55:43.456Z,14.73
2018-01-12T23:58:57.331Z,13.10
